Time;durP1;ratioP1;P1;durP2;ratioP2;P2;SDS_P1;SDS_P2;PMS_P1;PMS_P2;Temp;Humidity;BMP_temperature;BMP_pressure;BME280_temperature;BME280_humidity;BME280_pressure;Samples;Min_cycle;Max_cycle;Signal;HPM_P1;HPM_P2
2022/02/16 00:00:29;;;;;;;6.98;5.86;;;;;;;1.59;59.29;101913.80;459134;114;922555;-77
2022/02/16 00:01:33;;;;;;;6.47;5.19;;;;;;;1.58;59.28;101910.25;459942;112;922939;-76
2022/02/16 00:02:38;;;;;;;5.67;5.06;;;;;;;1.58;59.32;101904.02;460367;112;922915;-77
2022/02/16 00:03:41;;;;;;;5.90;4.97;;;;;;;1.57;59.31;101913.91;459686;112;930747;-76
2022/02/16 00:04:44;;;;;;;8.68;5.29;;;;;;;1.58;59.39;101909.39;458721;114;923276;-76
2022/02/16 00:05:47;;;;;;;5.88;5.32;;;;;;;1.58;59.39;101910.25;458942;112;922576;-77
2022/02/16 00:06:50;;;;;;;6.22;5.57;;;;;;;1.59;59.41;101903.04;459036;112;922966;-76
2022/02/16 00:07:54;;;;;;;6.89;6.17;;;;;;;1.58;59.46;101899.50;459544;114;922421;-77
2022/02/16 00:08:57;;;;;;;8.63;5.49;;;;;;;1.59;59.48;101900.36;458054;112;923204;-77
2022/02/16 00:10:00;;;;;;;6.40;5.51;;;;;;;1.59;59.51;101894.98;460809;112;922483;-77
2022/02/16 00:11:04;;;;;;;6.88;5.66;;;;;;;1.59;59.51;101894.98;458905;114;923178;-78
2022/02/16 00:12:08;;;;;;;6.87;6.16;;;;;;;1.60;59.50;101899.34;459643;112;922614;-76
2022/02/16 00:13:12;;;;;;;8.90;6.18;;;;;;;1.58;59.52;101894.12;459323;114;922659;-76
2022/02/16 00:14:15;;;;;;;7.54;6.33;;;;;;;1.58;59.53;101894.12;459476;114;922513;-77
2022/02/16 00:15:19;;;;;;;8.05;6.75;;;;;;;1.58;59.52;101893.27;459677;112;930774;-77
2022/02/16 00:16:22;;;;;;;7.26;6.43;;;;;;;1.57;59.56;101892.41;457999;114;922609;-76
2022/02/16 00:17:25;;;;;;;8.03;6.83;;;;;;;1.57;59.58;101888.86;458985;112;922634;-77
2022/02/16 00:18:28;;;;;;;8.92;7.50;;;;;;;1.56;59.62;101896.06;460202;112;922935;-76
2022/02/16 00:19:32;;;;;;;7.84;7.09;;;;;;;1.57;59.60;101891.55;458544;114;923420;-77
2022/02/16 00:20:36;;;;;;;7.87;6.06;;;;;;;1.56;59.65;101897.89;459013;112;922636;-76
2022/02/16 00:21:41;;;;;;;8.84;6.37;;;;;;;1.56;59.72;101892.52;458609;112;922462;-77
2022/02/16 00:22:45;;;;;;;7.50;6.23;;;;;;;1.55;59.72;101888.12;459519;112;922562;-76
2022/02/16 00:23:48;;;;;;;6.81;6.19;;;;;;;1.53;59.66;101900.84;459275;114;930593;-77
2022/02/16 00:24:50;;;;;;;7.31;6.53;;;;;;;1.52;59.72;101897.30;458875;112;922632;-77
2022/02/16 00:25:55;;;;;;;7.16;6.44;;;;;;;1.50;59.74;101901.94;459428;112;922684;-77
2022/02/16 00:26:58;;;;;;;9.60;8.26;;;;;;;1.50;59.76;101898.39;459817;112;923204;-77
2022/02/16 00:28:03;;;;;;;9.62;8.41;;;;;;;1.49;59.71;101899.39;458362;112;922792;-76
2022/02/16 00:29:06;;;;;;;12.35;10.05;;;;;;;1.47;59.74;101901.34;457686;114;922584;-77
2022/02/16 00:30:10;;;;;;;11.28;10.09;;;;;;;1.45;59.71;101897.91;459323;114;923013;-77
2022/02/16 00:31:13;;;;;;;15.61;11.77;;;;;;;1.42;59.72;101899.03;458400;114;930134;-77
2022/02/16 00:32:16;;;;;;;11.58;10.48;;;;;;;1.42;59.70;101892.80;459510;112;922597;-77
2022/02/16 00:33:19;;;;;;;13.37;10.68;;;;;;;1.40;59.66;101894.74;458438;114;922551;-78
2022/02/16 00:34:22;;;;;;;11.56;10.18;;;;;;;1.37;59.70;101890.48;459602;112;923289;-77
2022/02/16 00:35:26;;;;;;;11.62;10.44;;;;;;;1.35;59.71;101887.06;459517;112;923122;-76
2022/02/16 00:36:29;;;;;;;12.23;10.84;;;;;;;1.34;59.83;101888.03;458783;114;923236;-77
2022/02/16 00:37:35;;;;;;;12.24;10.61;;;;;;;1.33;59.95;101889.00;460143;112;922660;-77
2022/02/16 00:38:38;;;;;;;11.71;10.51;;;;;;;1.33;59.93;101898.89;458438;112;922669;-77
2022/02/16 00:39:41;;;;;;;9.31;8.26;;;;;;;1.32;60.06;101895.38;459571;112;923279;-76
2022/02/16 00:40:44;;;;;;;11.41;9.38;;;;;;;1.31;60.15;101895.49;459080;112;922610;-77
2022/02/16 00:41:47;;;;;;;13.48;10.01;;;;;;;1.30;60.30;101897.33;458093;114;922615;-77
2022/02/16 00:42:50;;;;;;;10.46;9.38;;;;;;;1.30;60.34;101897.33;459852;114;922578;-77
2022/02/16 00:43:54;;;;;;;10.90;9.61;;;;;;;1.30;60.32;101891.09;458820;112;922509;-78
2022/02/16 00:44:57;;;;;;;9.06;7.34;;;;;;;1.29;60.30;101887.55;459510;114;923104;-77
2022/02/16 00:46:00;;;;;;;7.23;6.53;;;;;;;1.27;60.38;101889.48;458392;114;922992;-77
2022/02/16 00:47:04;;;;;;;9.45;6.79;;;;;;;1.25;60.48;101889.63;459826;112;930479;-77
2022/02/16 00:48:08;;;;;;;7.61;6.69;;;;;;;1.25;60.62;101892.33;444481;116;922674;-77
2022/02/16 00:49:13;;;;;;;10.87;8.72;;;;;;;1.25;60.74;101888.78;455572;114;922688;-78
2022/02/16 00:50:16;;;;;;;10.76;9.18;;;;;;;1.27;60.80;101894.03;459477;114;922946;-77
2022/02/16 00:51:20;;;;;;;10.24;9.19;;;;;;;1.27;60.75;101894.03;458914;112;922901;-78
2022/02/16 00:52:23;;;;;;;11.19;9.24;;;;;;;1.26;60.75;101893.18;461162;112;922568;-78
2022/02/16 00:53:26;;;;;;;12.35;9.14;;;;;;;1.26;60.79;101885.12;461146;114;922724;-77
2022/02/16 00:54:30;;;;;;;9.41;8.48;;;;;;;1.25;60.82;101884.27;457286;115;930682;-77
2022/02/16 00:55:34;;;;;;;9.35;8.11;;;;;;;1.25;60.87;101888.78;455094;114;930652;-77
2022/02/16 00:56:42;;;;;;;13.15;8.36;;;;;;;1.25;60.93;101889.63;463547;112;922664;-77
2022/02/16 00:57:46;;;;;;;9.44;7.39;;;;;;;1.25;60.99;101892.33;462947;112;922999;-78
2022/02/16 00:58:49;;;;;;;8.55;7.49;;;;;;;1.27;61.09;101888.66;463828;112;922969;-77
2022/02/16 00:59:53;;;;;;;7.28;6.48;;;;;;;1.28;61.14;101884.97;458345;113;922628;-77
2022/02/16 01:00:56;;;;;;;7.72;6.98;;;;;;;1.29;61.16;101881.31;458153;113;922701;-77
2022/02/16 01:01:59;;;;;;;7.34;6.44;;;;;;;1.32;61.17;101881.09;463509;112;923288;-78
2022/02/16 01:03:05;;;;;;;11.37;8.13;;;;;;;1.33;61.24;101877.39;463394;112;922581;-76
2022/02/16 01:04:08;;;;;;;9.38;8.09;;;;;;;1.34;61.23;101879.97;463813;112;922603;-76
2022/02/16 01:05:11;;;;;;;10.75;8.61;;;;;;;1.36;61.24;101879.86;463334;112;923230;-76
2022/02/16 01:06:16;;;;;;;12.64;9.51;;;;;;;1.35;61.25;101881.69;463607;112;922556;-77
2022/02/16 01:07:20;;;;;;;12.39;9.87;;;;;;;1.37;61.30;101874.36;464353;112;922604;-77
2022/02/16 01:08:23;;;;;;;11.72;10.11;;;;;;;1.38;61.26;101875.22;464345;112;922579;-77
2022/02/16 01:09:27;;;;;;;12.44;10.05;;;;;;;1.39;61.24;101874.22;457071;114;930166;-78
2022/02/16 01:10:31;;;;;;;12.70;10.44;;;;;;;1.40;61.26;101875.93;455542;113;923171;-78
2022/02/16 01:11:34;;;;;;;12.68;10.88;;;;;;;1.41;61.23;101866.90;464695;112;922605;-76
2022/02/16 01:12:39;;;;;;;12.63;10.24;;;;;;;1.41;61.22;101864.20;463926;112;922845;-77
2022/02/16 01:13:42;;;;;;;12.81;10.23;;;;;;;1.42;61.22;101868.61;464420;112;923130;-77
2022/02/16 01:14:46;;;;;;;19.09;10.75;;;;;;;1.41;61.23;101861.52;464439;112;930383;-77
2022/02/16 01:15:53;;;;;;;12.19;9.77;;;;;;;1.42;61.19;101864.09;464144;112;922543;-77
2022/02/16 01:16:58;;;;;;;17.72;10.56;;;;;;;1.42;61.19;101856.03;464834;112;922927;-77
2022/02/16 01:18:03;;;;;;;12.43;10.74;;;;;;;1.41;61.24;101862.38;462139;112;923502;-77
2022/02/16 01:19:20;;;;;;;12.83;10.21;;;;;;;1.41;61.21;101853.46;464456;112;922762;-77
2022/02/16 01:20:25;;;;;;;14.46;11.20;;;;;;;1.41;61.21;101858.83;464435;112;922621;-77
2022/02/16 01:21:34;;;;;;;14.28;10.54;;;;;;;1.38;61.26;101859.92;463237;112;922575;-77
2022/02/16 01:22:39;;;;;;;17.71;10.53;;;;;;;1.37;61.22;101854.70;456051;114;922848;-76
2022/02/16 01:23:47;;;;;;;13.02;9.71;;;;;;;1.35;61.27;101849.44;456575;113;923391;-77
2022/02/16 01:24:51;;;;;;;12.06;9.97;;;;;;;1.35;61.25;101853.95;452465;114;922497;-77
2022/02/16 01:25:55;;;;;;;12.82;9.98;;;;;;;1.30;61.26;101851.64;454518;112;930295;-77
2022/02/16 01:27:09;;;;;;;13.16;9.88;;;;;;;1.28;61.31;101858.11;456992;114;922783;-76
2022/02/16 01:28:12;;;;;;;13.26;11.00;;;;;;;1.26;61.36;101858.25;458525;112;922644;-76
2022/02/16 01:29:16;;;;;;;13.45;10.69;;;;;;;1.22;61.53;101854.94;463660;112;923066;-77
2022/02/16 01:30:22;;;;;;;15.38;10.83;;;;;;;1.22;61.61;101859.45;464210;112;922769;-76
2022/02/16 01:31:27;;;;;;;13.78;10.46;;;;;;;1.20;61.75;101856.06;464167;112;923200;-76
2022/02/16 01:32:30;;;;;;;12.25;9.58;;;;;;;1.20;61.83;101856.91;463885;112;922855;-77
2022/02/16 01:33:35;;;;;;;14.24;9.68;;;;;;;1.20;61.86;101867.66;464376;112;922623;-76
2022/02/16 01:34:39;;;;;;;9.64;8.23;;;;;;;1.18;61.92;101856.17;455761;114;922538;-77
2022/02/16 01:35:44;;;;;;;9.37;7.97;;;;;;;1.18;62.00;101861.55;455285;112;922744;-77
2022/02/16 01:36:47;;;;;;;10.60;8.79;;;;;;;1.19;62.07;101865.09;463930;112;922987;-78
2022/02/16 01:37:51;;;;;;;8.59;7.54;;;;;;;1.19;62.13;101859.72;457495;114;930636;-77
2022/02/16 01:38:54;;;;;;;9.29;7.76;;;;;;;1.19;62.14;101865.09;459391;112;931078;-76
2022/02/16 01:39:59;;;;;;;11.87;8.65;;;;;;;1.18;62.13;101872.29;464319;112;922587;-76
2022/02/16 01:41:04;;;;;;;10.80;8.88;;;;;;;1.16;62.20;101866.17;464870;112;922519;-76
2022/02/16 01:42:12;;;;;;;14.48;9.55;;;;;;;1.16;62.22;101863.48;464941;112;922770;-77
2022/02/16 01:43:16;;;;;;;12.41;11.13;;;;;;;1.15;62.31;101869.86;457228;114;922560;-78
2022/02/16 01:44:23;;;;;;;13.22;11.81;;;;;;;1.15;62.33;101864.48;458211;112;922694;-80
2022/02/16 01:45:29;;;;;;;14.37;12.22;;;;;;;1.15;62.36;101864.48;463565;112;922617;-75
2022/02/16 01:46:51;;;;;;;14.25;11.36;;;;;;;1.15;62.34;101866.32;463420;112;922808;-77
2022/02/16 01:47:56;;;;;;;11.95;10.72;;;;;;;1.14;62.38;101867.30;463850;112;922559;-77
2022/02/16 01:49:00;;;;;;;11.66;10.54;;;;;;;1.13;62.43;101869.12;464983;112;922610;-77
2022/02/16 01:50:08;;;;;;;12.57;11.01;;;;;;;1.12;62.44;101870.09;464176;112;922843;-76
2022/02/16 01:51:12;;;;;;;12.40;10.51;;;;;;;1.13;62.55;101873.63;463638;111;922544;-76
2022/02/16 01:52:17;;;;;;;10.19;8.95;;;;;;;1.13;62.57;101866.44;464736;112;922633;-77
2022/02/16 01:53:22;;;;;;;11.28;10.18;;;;;;;1.14;62.58;101869.98;464236;112;922603;-78
2022/02/16 01:54:26;;;;;;;10.61;9.38;;;;;;;1.15;62.57;101872.55;464133;112;922603;-78
2022/02/16 01:55:29;;;;;;;11.04;9.03;;;;;;;1.14;62.54;101868.15;464631;111;922635;-78
2022/02/16 01:56:33;;;;;;;10.23;9.20;;;;;;;1.15;62.55;101867.18;457014;114;922783;-78
2022/02/16 01:57:37;;;;;;;11.81;8.74;;;;;;;1.14;62.52;101861.92;456785;114;922662;-77
2022/02/16 01:58:42;;;;;;;11.48;9.19;;;;;;;1.14;62.52;101865.46;453418;114;922693;-78
2022/02/16 01:59:52;;;;;;;11.95;9.91;;;;;;;1.14;62.54;101876.20;454066;112;922697;-77
2022/02/16 02:01:14;;;;;;;9.39;8.49;;;;;;;1.15;62.55;101869.00;458609;114;923117;-76
2022/02/16 02:02:25;;;;;;;14.02;8.46;;;;;;;1.15;62.57;101869.00;439083;118;922605;-76
2022/02/16 02:03:31;;;;;;;9.17;8.06;;;;;;;1.15;62.63;101869.00;449150;114;922547;-77
2022/02/16 02:04:36;;;;;;;9.13;8.09;;;;;;;1.14;62.64;101857.41;447422;115;922649;-76
2022/02/16 02:05:41;;;;;;;11.02;7.84;;;;;;;1.14;62.69;101869.98;441986;118;922635;-76
2022/02/16 02:06:46;;;;;;;11.73;7.26;;;;;;;1.14;62.75;101867.30;441781;118;922959;-75
2022/02/16 02:07:49;;;;;;;8.56;7.70;;;;;;;1.14;62.80;101857.41;442983;118;922645;-75
2022/02/16 02:08:52;;;;;;;8.51;7.58;;;;;;;1.14;62.80;101861.92;442132;117;922750;-75
2022/02/16 02:09:55;;;;;;;9.83;8.00;;;;;;;1.13;62.82;101861.06;443513;118;922787;-76
2022/02/16 02:10:58;;;;;;;9.64;8.56;;;;;;;1.14;62.79;101857.41;443602;116;922627;-76
2022/02/16 02:12:02;;;;;;;10.76;8.74;;;;;;;1.14;62.80;101860.09;444218;117;923619;-76
2022/02/16 02:13:09;;;;;;;9.06;8.14;;;;;;;1.14;62.70;101862.78;443671;117;922617;-77
2022/02/16 02:14:14;;;;;;;9.18;8.01;;;;;;;1.14;62.75;101856.55;443186;118;922520;-77
2022/02/16 02:15:24;;;;;;;9.53;8.43;;;;;;;1.13;62.77;101860.20;441858;118;922661;-76
2022/02/16 02:16:32;;;;;;;8.84;7.67;;;;;;;1.13;62.83;101854.83;434442;120;923527;-77
2022/02/16 02:17:36;;;;;;;8.81;7.79;;;;;;;1.13;62.78;101855.69;454391;114;922612;-77
2022/02/16 02:18:40;;;;;;;8.44;7.53;;;;;;;1.12;62.68;101855.80;457815;114;922549;-76
2022/02/16 02:19:43;;;;;;;8.74;7.63;;;;;;;1.11;62.66;101857.63;458149;112;923033;-76
2022/02/16 02:20:46;;;;;;;9.42;7.94;;;;;;;1.10;62.63;101853.23;457943;112;923252;-76
2022/02/16 02:21:50;;;;;;;8.41;7.44;;;;;;;1.10;62.65;101858.61;457585;114;922402;-77
2022/02/16 02:22:54;;;;;;;8.82;7.92;;;;;;;1.08;62.67;101857.89;457799;114;922492;-78
2022/02/16 02:23:58;;;;;;;8.22;7.17;;;;;;;1.09;62.79;101858.75;458457;112;922873;-76
2022/02/16 02:25:01;;;;;;;12.61;7.62;;;;;;;1.10;62.88;101855.09;457968;112;930656;-75
2022/02/16 02:26:04;;;;;;;8.48;7.68;;;;;;;1.10;62.87;101860.46;458196;114;922573;-77
2022/02/16 02:27:08;;;;;;;14.06;8.22;;;;;;;1.12;62.91;101864.72;457229;114;923421;-76
2022/02/16 02:28:11;;;;;;;9.13;7.71;;;;;;;1.15;63.02;101856.44;458058;114;930669;-77
2022/02/16 02:29:15;;;;;;;8.86;8.00;;;;;;;1.18;63.08;101852.62;457081;112;922489;-77
2022/02/16 02:30:20;;;;;;;8.73;7.84;;;;;;;1.23;63.13;101850.42;457680;112;930909;-76
2022/02/16 02:31:32;;;;;;;8.34;6.78;;;;;;;1.28;63.16;101858.96;457270;114;922483;-75
2022/02/16 02:32:35;;;;;;;9.04;7.05;;;;;;;1.32;63.08;101851.53;457131;112;922505;-76
2022/02/16 02:33:41;;;;;;;7.96;7.23;;;;;;;1.37;63.12;101852.01;458125;112;922621;-75
2022/02/16 02:34:44;;;;;;;7.65;6.92;;;;;;;1.42;63.11;101849.80;457397;112;922658;-77
2022/02/16 02:35:47;;;;;;;7.34;6.47;;;;;;;1.47;63.13;101853.83;458645;112;922497;-74
2022/02/16 02:36:51;;;;;;;10.77;7.33;;;;;;;1.52;63.13;101850.75;458450;113;922747;-75
2022/02/16 02:37:54;;;;;;;8.00;7.18;;;;;;;1.56;63.07;101853.06;458690;112;930575;-76
2022/02/16 02:38:57;;;;;;;7.88;7.02;;;;;;;1.59;62.99;101855.52;458749;114;922407;-75
2022/02/16 02:40:01;;;;;;;7.34;6.61;;;;;;;1.63;63.01;101859.65;458922;112;922370;-76
2022/02/16 02:41:05;;;;;;;7.32;5.71;;;;;;;1.66;62.99;101851.31;458599;114;930525;-77
2022/02/16 02:42:10;;;;;;;7.19;5.87;;;;;;;1.69;62.95;101852.91;455995;116;931007;-76
2022/02/16 02:43:13;;;;;;;6.52;5.80;;;;;;;1.72;62.94;101857.16;455917;114;922576;-77
2022/02/16 02:44:18;;;;;;;5.94;4.95;;;;;;;1.75;62.91;101857.79;458191;112;922730;-75
2022/02/16 02:45:22;;;;;;;6.17;5.51;;;;;;;1.76;62.88;101850.58;458036;112;922655;-77
2022/02/16 02:46:26;;;;;;;7.09;5.98;;;;;;;1.80;62.89;101863.64;457337;114;923068;-76
2022/02/16 02:47:31;;;;;;;7.74;5.43;;;;;;;1.85;62.89;101860.56;458224;114;922461;-76
2022/02/16 02:48:34;;;;;;;7.43;6.53;;;;;;;1.89;62.91;101864.70;457807;112;922615;-77
2022/02/16 02:49:38;;;;;;;6.81;6.04;;;;;;;1.92;62.85;101859.94;457986;112;922564;-75
2022/02/16 02:50:41;;;;;;;6.36;5.65;;;;;;;1.96;62.79;101860.52;457447;112;922965;-76
2022/02/16 02:51:45;;;;;;;7.19;6.20;;;;;;;2.01;62.80;101858.30;457577;114;922592;-75
2022/02/16 02:52:49;;;;;;;7.52;6.70;;;;;;;2.04;62.72;101858.88;457520;114;922677;-76
2022/02/16 02:53:52;;;;;;;7.87;6.91;;;;;;;2.07;62.69;101858.64;457668;114;922644;-76
2022/02/16 02:54:55;;;;;;;8.84;7.64;;;;;;;2.09;62.62;101859.35;457200;114;923397;-76
2022/02/16 02:55:58;;;;;;;10.69;7.91;;;;;;;2.12;62.59;101860.94;458308;114;930593;-77
2022/02/16 02:57:02;;;;;;;11.49;8.94;;;;;;;2.14;62.50;101856.30;456931;112;922674;-75
2022/02/16 02:58:06;;;;;;;11.81;8.75;;;;;;;2.13;62.38;101849.20;457553;114;922560;-76
2022/02/16 02:59:11;;;;;;;12.63;8.96;;;;;;;2.15;62.27;101855.29;458850;113;922885;-77
2022/02/16 03:00:15;;;;;;;9.65;8.67;;;;;;;2.15;62.28;101857.98;459227;114;922565;-77
2022/02/16 03:01:20;;;;;;;9.64;8.18;;;;;;;2.17;62.26;101852.48;457844;113;922674;-77
2022/02/16 03:02:25;;;;;;;10.34;7.91;;;;;;;2.18;62.24;101849.67;457622;113;923464;-76
2022/02/16 03:03:28;;;;;;;8.98;7.75;;;;;;;2.20;62.19;101855.78;459106;114;922601;-74
2022/02/16 03:04:32;;;;;;;9.31;8.36;;;;;;;2.21;62.13;101853.91;457831;112;922632;-75
2022/02/16 03:05:35;;;;;;;10.78;8.54;;;;;;;2.23;62.13;101850.13;457251;114;922654;-76
2022/02/16 03:06:38;;;;;;;11.74;10.01;;;;;;;2.25;62.06;101844.63;458545;113;922646;-76
2022/02/16 03:07:41;;;;;;;13.25;10.24;;;;;;;2.27;61.94;101845.33;455971;114;922573;-75
2022/02/16 03:08:44;;;;;;;14.43;11.33;;;;;;;2.25;61.90;101847.31;443051;117;922750;-75
2022/02/16 03:09:48;;;;;;;17.82;12.29;;;;;;;2.24;61.85;101842.91;448189;116;922513;-74
2022/02/16 03:10:51;;;;;;;15.04;11.73;;;;;;;2.23;61.81;101847.44;443851;116;923154;-76
2022/02/16 03:11:55;;;;;;;16.92;13.22;;;;;;;2.23;61.75;101844.75;449186;116;922619;-76
2022/02/16 03:12:59;;;;;;;19.40;14.61;;;;;;;2.23;61.72;101846.58;443955;116;922521;-76
2022/02/16 03:14:04;;;;;;;18.82;14.18;;;;;;;2.22;61.65;101853.80;438279;118;922910;-76
2022/02/16 03:15:10;;;;;;;19.42;14.29;;;;;;;2.19;61.61;101840.62;446644;116;922983;-76
2022/02/16 03:16:16;;;;;;;21.47;15.03;;;;;;;2.19;61.65;101835.23;448638;116;922650;-77
2022/02/16 03:17:19;;;;;;;20.91;14.63;;;;;;;2.18;61.67;101838.05;443143;117;922596;-76
2022/02/16 03:18:23;;;;;;;17.26;15.43;;;;;;;2.18;61.78;101846.98;443459;116;930613;-75
2022/02/16 03:19:26;;;;;;;16.22;14.41;;;;;;;2.19;61.73;101847.83;441792;117;922725;-76
2022/02/16 03:20:30;;;;;;;20.52;15.84;;;;;;;2.18;61.73;101843.43;441311;116;922741;-75
2022/02/16 03:21:34;;;;;;;17.41;15.22;;;;;;;2.19;61.82;101845.14;450564;115;922629;-75
2022/02/16 03:22:38;;;;;;;20.53;15.15;;;;;;;2.19;61.87;101840.62;449627;114;931167;-75
2022/02/16 03:23:41;;;;;;;16.15;14.37;;;;;;;2.21;61.81;101844.02;449082;116;930978;-75
2022/02/16 03:24:44;;;;;;;17.99;15.59;;;;;;;2.23;61.79;101841.20;440268;117;922953;-74
2022/02/16 03:25:48;;;;;;;19.32;15.10;;;;;;;2.24;61.73;101842.91;442199;118;923009;-76
2022/02/16 03:26:52;;;;;;;19.19;14.79;;;;;;;2.26;61.71;101844.47;449543;116;922816;-77
2022/02/16 03:27:58;;;;;;;19.61;15.65;;;;;;;2.28;61.70;101845.20;449089;116;930562;-74
2022/02/16 03:29:01;;;;;;;17.94;15.13;;;;;;;2.30;61.63;101839.70;444629;116;922757;-77
2022/02/16 03:30:08;;;;;;;16.74;13.98;;;;;;;2.32;61.59;101835.88;444178;116;930612;-76
2022/02/16 03:31:16;;;;;;;20.26;15.14;;;;;;;2.34;61.48;101839.30;443277;117;923022;-76
2022/02/16 03:32:22;;;;;;;19.93;14.97;;;;;;;2.34;61.51;101838.45;439941;119;922543;-75
2022/02/16 03:33:25;;;;;;;16.83;13.99;;;;;;;2.33;61.37;101842.12;443493;117;922593;-76
2022/02/16 03:34:28;;;;;;;14.53;13.09;;;;;;;2.32;61.36;101835.88;448853;116;923050;-76
2022/02/16 03:35:34;;;;;;;16.27;13.49;;;;;;;2.32;61.45;101840.41;445166;118;922652;-75
2022/02/16 03:36:37;;;;;;;14.64;13.17;;;;;;;2.32;61.51;101837.71;453448;114;922725;-74
2022/02/16 03:37:40;;;;;;;15.62;13.55;;;;;;;2.32;61.53;101835.88;458726;112;922666;-75
2022/02/16 03:38:44;;;;;;;16.05;13.14;;;;;;;2.34;61.51;101833.06;458174;112;922725;-74
2022/02/16 03:39:47;;;;;;;17.69;13.83;;;;;;;2.34;61.49;101835.76;457903;113;922592;-76
2022/02/16 03:40:53;;;;;;;22.74;14.44;;;;;;;2.35;61.50;101835.64;457770;114;930602;-75
2022/02/16 03:41:56;;;;;;;22.91;15.28;;;;;;;2.35;61.49;101834.78;459020;114;923121;-76
2022/02/16 03:43:00;;;;;;;20.16;15.31;;;;;;;2.37;61.49;101832.83;457174;114;922545;-75
2022/02/16 03:44:03;;;;;;;22.02;15.38;;;;;;;2.38;61.47;101835.36;459056;114;923404;-74
2022/02/16 03:45:09;;;;;;;18.56;15.71;;;;;;;2.40;61.44;101835.23;457445;113;922670;-74
2022/02/16 03:46:21;;;;;;;18.12;15.66;;;;;;;2.41;61.42;101834.26;457226;113;922551;-75
2022/02/16 03:47:24;;;;;;;16.84;14.65;;;;;;;2.42;61.34;101835.97;457827;114;922973;-77
2022/02/16 03:48:27;;;;;;;18.04;15.63;;;;;;;2.41;61.26;101837.80;458593;113;922713;-76
2022/02/16 03:49:30;;;;;;;22.56;16.42;;;;;;;2.40;61.27;101837.92;458840;113;930560;-76
2022/02/16 03:50:35;;;;;;;20.69;15.55;;;;;;;2.40;61.23;101829.85;459915;114;922559;-75
2022/02/16 03:51:38;;;;;;;20.08;15.99;;;;;;;2.39;61.19;101837.07;459912;112;922553;-75
2022/02/16 03:52:41;;;;;;;17.82;16.05;;;;;;;2.38;61.22;101831.81;458833;113;923686;-76
2022/02/16 03:53:44;;;;;;;20.42;16.31;;;;;;;2.37;61.28;101835.52;458813;113;922521;-73
2022/02/16 03:54:48;;;;;;;21.12;16.99;;;;;;;2.37;61.38;101839.03;452464;115;922672;-76
2022/02/16 03:55:51;;;;;;;21.15;17.19;;;;;;;2.38;61.43;101839.89;451425;114;923307;-76
2022/02/16 03:56:54;;;;;;;21.33;17.24;;;;;;;2.37;61.43;101839.03;458576;114;922717;-75
2022/02/16 03:57:57;;;;;;;19.06;16.81;;;;;;;2.39;61.40;101841.59;463111;112;922522;-76
2022/02/16 03:59:02;;;;;;;27.01;18.92;;;;;;;2.39;61.36;101830.83;463011;113;922590;-74
2022/02/16 04:00:09;;;;;;;26.12;19.59;;;;;;;2.40;61.34;101840.63;463122;113;922790;-76
2022/02/16 04:01:20;;;;;;;29.79;21.35;;;;;;;2.39;61.35;101837.07;462674;112;923699;-76
2022/02/16 04:02:23;;;;;;;30.68;21.85;;;;;;;2.40;61.31;101837.92;463660;113;922786;-74
2022/02/16 04:03:26;;;;;;;27.65;20.51;;;;;;;2.41;61.28;101828.88;450158;117;922539;-76
2022/02/16 04:04:30;;;;;;;30.08;21.77;;;;;;;2.41;61.19;101828.88;447237;116;922532;-75
2022/02/16 04:05:34;;;;;;;38.58;22.27;;;;;;;2.42;61.14;101833.28;449141;116;922896;-74
2022/02/16 04:06:37;;;;;;;36.96;22.76;;;;;;;2.42;61.10;101835.97;450011;115;923183;-76
2022/02/16 04:07:40;;;;;;;29.64;22.02;;;;;;;2.42;61.10;101838.66;444887;118;930531;-75
2022/02/16 04:08:45;;;;;;;27.91;21.23;;;;;;;2.41;61.14;101837.80;452761;114;922777;-76
2022/02/16 04:09:48;;;;;;;26.52;21.44;;;;;;;2.41;61.17;101835.11;447504;117;922526;-75
2022/02/16 04:10:51;;;;;;;35.43;23.50;;;;;;;2.43;61.13;101826.88;450250;117;922758;-75
2022/02/16 04:11:56;;;;;;;29.37;21.91;;;;;;;2.44;61.13;101836.67;441527;116;922578;-77
2022/02/16 04:12:59;;;;;;;26.69;21.52;;;;;;;2.46;61.13;101837.41;453469;114;922666;-76
2022/02/16 04:14:03;;;;;;;29.22;21.31;;;;;;;2.45;61.15;101835.69;439943;118;922878;-74
2022/02/16 04:15:06;;;;;;;26.39;19.81;;;;;;;2.47;61.11;101831.90;455167;113;922875;-75
2022/02/16 04:16:12;;;;;;;25.18;20.47;;;;;;;2.47;61.09;101833.73;456721;115;922995;-75
2022/02/16 04:17:15;;;;;;;32.56;20.26;;;;;;;2.48;61.10;101830.06;451619;115;922755;-75
2022/02/16 04:18:18;;;;;;;23.71;19.09;;;;;;;2.48;61.13;101830.89;458989;113;922715;-75
2022/02/16 04:19:23;;;;;;;24.29;19.31;;;;;;;2.48;61.04;101838.96;462458;113;922489;-75
2022/02/16 04:20:26;;;;;;;19.29;17.44;;;;;;;2.50;61.08;101837.00;463356;113;922542;-77
2022/02/16 04:21:30;;;;;;;19.17;16.90;;;;;;;2.50;61.02;101842.39;463460;113;922705;-76
2022/02/16 04:22:35;;;;;;;18.50;16.27;;;;;;;2.52;61.00;101836.87;462835;113;930686;-75
2022/02/16 04:23:40;;;;;;;17.17;15.07;;;;;;;2.51;60.96;101837.86;463559;113;930660;-76
2022/02/16 04:24:44;;;;;;;28.43;15.17;;;;;;;2.50;60.91;101831.62;463959;113;923094;-75
2022/02/16 04:25:48;;;;;;;17.83;15.08;;;;;;;2.51;60.89;101835.17;462976;113;922866;-76
2022/02/16 04:26:52;;;;;;;20.28;17.11;;;;;;;2.49;60.87;101837.98;463068;113;930595;-74
2022/02/16 04:27:55;;;;;;;17.94;16.09;;;;;;;2.48;60.80;101835.45;463658;113;923342;-75
2022/02/16 04:29:00;;;;;;;17.49;15.72;;;;;;;2.47;60.84;101828.34;462997;113;922584;-76
2022/02/16 04:30:07;;;;;;;16.87;14.34;;;;;;;2.47;60.87;101831.04;462857;112;922646;-74
2022/02/16 04:31:11;;;;;;;22.23;15.54;;;;;;;2.46;60.90;101832.88;462104;113;922675;-74
2022/02/16 04:32:14;;;;;;;16.78;15.21;;;;;;;2.47;60.89;101831.90;457926;115;922648;-76
2022/02/16 04:33:18;;;;;;;17.19;15.39;;;;;;;2.47;60.81;101834.59;456786;114;922743;-76
2022/02/16 04:34:21;;;;;;;17.06;15.34;;;;;;;2.47;60.78;101833.73;463116;112;930590;-76
2022/02/16 04:35:25;;;;;;;16.97;14.98;;;;;;;2.44;60.75;101837.53;463579;112;930574;-76
2022/02/16 04:36:28;;;;;;;15.92;14.36;;;;;;;2.43;60.75;101835.81;462417;113;922548;-75
2022/02/16 04:37:34;;;;;;;15.77;13.77;;;;;;;2.41;60.85;101831.56;463145;112;922658;-76
2022/02/16 04:38:37;;;;;;;22.36;14.56;;;;;;;2.41;60.89;101834.26;462525;112;922652;-76
2022/02/16 04:39:40;;;;;;;15.44;13.70;;;;;;;2.41;60.88;101834.26;464075;113;922745;-74
2022/02/16 04:40:44;;;;;;;13.73;12.53;;;;;;;2.40;60.92;101832.55;465200;112;922557;-74
2022/02/16 04:41:47;;;;;;;15.85;13.63;;;;;;;2.38;60.90;101838.05;462794;112;930339;-75
2022/02/16 04:42:51;;;;;;;13.74;12.37;;;;;;;2.36;60.92;101840.04;462745;112;930826;-75
2022/02/16 04:43:54;;;;;;;15.01;13.51;;;;;;;2.35;60.97;101842.85;464794;112;922517;-76
2022/02/16 04:44:58;;;;;;;16.30;14.25;;;;;;;2.33;60.94;101834.05;463759;113;922650;-76
2022/02/16 04:46:01;;;;;;;16.04;13.61;;;;;;;2.32;60.93;101829.64;456808;115;930852;-73
2022/02/16 04:47:04;;;;;;;16.00;14.39;;;;;;;2.30;60.93;101839.70;458165;113;922706;-77
2022/02/16 04:48:08;;;;;;;16.10;14.45;;;;;;;2.28;61.01;101841.66;462815;112;923019;-75
2022/02/16 04:49:11;;;;;;;17.80;15.09;;;;;;;2.25;61.00;101833.86;462741;113;922648;-75
2022/02/16 04:50:16;;;;;;;16.31;13.75;;;;;;;2.24;61.03;101834.84;461974;112;923003;-74
2022/02/16 04:51:20;;;;;;;15.48;12.22;;;;;;;2.25;61.09;101840.09;462742;113;930519;-75
2022/02/16 04:52:34;;;;;;;14.59;13.09;;;;;;;2.23;61.08;101833.98;462854;113;922670;-76
2022/02/16 04:53:32;;;;;;;14.58;12.18;;;;;;;2.23;61.09;101833.98;462179;113;923111;-75
2022/02/16 04:54:36;;;;;;;14.59;12.79;;;;;;;2.23;61.09;101846.58;462580;113;922505;-76
2022/02/16 04:55:39;;;;;;;17.22;12.56;;;;;;;2.22;61.21;101840.34;456240;114;922642;-76